Time;durP1;ratioP1;P1;durP2;ratioP2;P2;SDS_P1;SDS_P2;PMS_P1;PMS_P2;Temp;Humidity;BMP_temperature;BMP_pressure;BME280_temperature;BME280_humidity;BME280_pressure;Samples;Min_cycle;Max_cycle;Signal;HPM_P1;HPM_P2
2022/10/10 00:01:27;;;;;;;45.90;13.43;;;;;;;16.33;64.61;101473.78;4934577;29;20046;-77
2022/10/10 00:03:52;;;;;;;30.42;13.40;;;;;;;16.32;64.75;101484.81;4935124;29;20176;-77
2022/10/10 00:06:19;;;;;;;29.73;11.80;;;;;;;16.28;64.84;101486.94;4935001;29;20114;-77
2022/10/10 00:08:44;;;;;;;22.35;11.32;;;;;;;16.23;65.06;101480.22;4935163;29;20470;-76
2022/10/10 00:11:11;;;;;;;27.35;13.30;;;;;;;16.22;65.07;101479.34;4934753;29;20111;-76
2022/10/10 00:13:37;;;;;;;31.92;11.70;;;;;;;16.20;64.91;101481.34;4935124;29;20028;-76
2022/10/10 00:16:03;;;;;;;34.35;12.55;;;;;;;16.25;65.09;101492.63;4934635;29;20115;-76
2022/10/10 00:18:29;;;;;;;38.90;12.88;;;;;;;16.19;65.13;101476.91;4934490;29;20031;-76
2022/10/10 00:20:55;;;;;;;28.63;13.25;;;;;;;16.17;65.45;101484.34;4934409;29;20043;-76
2022/10/10 00:23:20;;;;;;;27.92;11.40;;;;;;;16.15;65.50;101491.75;4934083;29;20020;-76
2022/10/10 00:25:46;;;;;;;27.17;11.63;;;;;;;16.13;65.55;101487.47;4934487;29;20038;-77
2022/10/10 00:28:12;;;;;;;27.00;12.07;;;;;;;15.94;66.10;101455.72;4934175;29;20518;-76
2022/10/10 00:30:38;;;;;;;20.67;13.05;;;;;;;15.69;66.22;101431.78;4934465;29;20020;-77
2022/10/10 00:33:04;;;;;;;51.75;18.25;;;;;;;16.03;66.38;101495.59;4933981;29;20032;-78
2022/10/10 00:35:29;;;;;;;26.25;13.45;;;;;;;15.93;66.37;101483.00;4934067;29;20032;-77
2022/10/10 00:37:55;;;;;;;21.58;12.63;;;;;;;15.82;66.61;101470.38;4933985;29;20506;-76
2022/10/10 00:40:21;;;;;;;29.85;13.30;;;;;;;15.96;66.61;101499.84;4934526;29;20046;-77
2022/10/10 00:42:46;;;;;;;30.83;11.52;;;;;;;15.82;67.07;101478.53;4934505;29;20054;-77
2022/10/10 00:45:27;;;;;;;111.78;16.75;;;;;;;15.94;66.90;101503.69;4934312;29;20094;-76
2022/10/10 00:48:11;;;;;;;29.77;13.10;;;;;;;15.91;67.12;101499.41;4934186;29;20091;-76
2022/10/10 00:50:44;;;;;;;30.40;13.23;;;;;;;15.85;67.39;101505.38;4934279;29;20028;-77
2022/10/10 00:53:14;;;;;;;27.88;13.00;;;;;;;15.87;67.25;101503.38;4935819;29;20031;-77
2022/10/10 00:55:40;;;;;;;27.60;13.10;;;;;;;15.67;67.63;101485.31;4934598;29;20028;-78
2022/10/10 00:58:07;;;;;;;50.35;14.40;;;;;;;15.85;67.35;101505.38;4934321;29;20035;-76
2022/10/10 01:00:33;;;;;;;22.08;12.18;;;;;;;15.82;67.52;101510.22;4915869;29;20078;-77
2022/10/10 01:02:58;;;;;;;20.02;12.38;;;;;;;15.83;67.69;101507.38;4939667;29;20223;-77
2022/10/10 01:05:24;;;;;;;26.10;13.02;;;;;;;15.86;67.56;101512.53;4944721;29;20048;-77
2022/10/10 01:07:50;;;;;;;45.10;13.80;;;;;;;15.86;67.86;101509.81;4944122;29;20175;-77
2022/10/10 01:10:17;;;;;;;23.00;12.25;;;;;;;15.86;67.45;101506.25;4935436;29;20028;-77
2022/10/10 01:12:49;;;;;;;18.83;13.23;;;;;;;15.92;67.52;101516.53;4916158;29;20118;-76
2022/10/10 01:15:31;;;;;;;30.75;14.77;;;;;;;15.93;67.31;101513.69;4934146;29;20031;-76
2022/10/10 01:18:35;;;;;;;30.83;13.90;;;;;;;16.01;67.12;101516.59;4934217;29;20623;-77
2022/10/10 01:21:15;;;;;;;35.78;13.13;;;;;;;15.99;67.37;101515.00;4933674;29;20495;-77
2022/10/10 01:23:56;;;;;;;29.30;14.27;;;;;;;15.97;67.45;101519.69;4933666;29;20039;-77
2022/10/10 01:26:43;;;;;;;23.48;13.60;;;;;;;15.97;67.34;101516.97;4932260;29;20029;-77
2022/10/10 01:29:18;;;;;;;42.25;14.13;;;;;;;15.88;67.47;101510.53;4932868;29;20495;-77
2022/10/10 01:31:47;;;;;;;20.75;13.93;;;;;;;15.98;67.43;101533.13;4932942;29;20103;-77
2022/10/10 01:34:45;;;;;;;76.15;16.38;;;;;;;15.99;67.24;101534.00;4932686;29;20431;-77
2022/10/10 01:37:41;;;;;;;23.38;13.35;;;;;;;15.95;67.38;101522.56;4933396;29;20024;-77
2022/10/10 01:40:42;;;;;;;34.78;15.93;;;;;;;15.89;67.68;101528.53;4932687;29;20043;-77
2022/10/10 01:43:08;;;;;;;26.67;13.57;;;;;;;15.90;67.81;101521.25;4874181;29;20044;-77
2022/10/10 01:45:34;;;;;;;25.33;13.82;;;;;;;15.80;67.66;101518.50;4874022;29;20048;-78
2022/10/10 01:48:06;;;;;;;34.00;13.95;;;;;;;15.86;68.01;101533.38;4874425;29;20045;-77
2022/10/10 01:50:40;;;;;;;28.63;14.13;;;;;;;15.86;67.50;101539.66;4874154;29;20033;-77
2022/10/10 01:53:19;;;;;;;21.95;13.50;;;;;;;15.84;67.93;101535.38;4873919;29;20049;-76
2022/10/10 01:55:54;;;;;;;26.25;14.07;;;;;;;15.83;67.73;101534.50;4873704;29;20036;-76
2022/10/10 01:58:46;;;;;;;29.10;13.35;;;;;;;15.81;67.92;101531.06;4873926;29;20045;-77
2022/10/10 02:01:39;;;;;;;25.65;14.32;;;;;;;15.82;67.99;101532.78;4873843;29;20168;-78
2022/10/10 02:04:12;;;;;;;;;;;;;;;15.84;67.70;101530.78;4874153;29;20044;-76
2022/10/10 02:06:43;;;;;;;27.33;13.77;;;;;;;15.83;68.08;101529.09;4874031;29;20502;-76
2022/10/10 02:09:15;;;;;;;29.95;14.98;;;;;;;15.81;67.79;101531.06;4873786;29;20413;-76
2022/10/10 02:11:41;;;;;;;27.23;13.88;;;;;;;15.77;68.06;101535.91;4874504;29;20086;-76
2022/10/10 02:14:19;;;;;;;24.45;13.07;;;;;;;15.69;68.23;101533.00;4873596;29;20041;-76
2022/10/10 02:16:47;;;;;;;17.90;12.82;;;;;;;15.66;68.36;101543.25;4873932;29;20044;-76
2022/10/10 02:19:20;;;;;;;35.15;13.55;;;;;;;15.63;68.47;101538.09;4900635;29;20044;-78
2022/10/10 02:21:50;;;;;;;22.38;13.05;;;;;;;15.74;68.30;101557.03;4941093;29;20153;-77
2022/10/10 02:24:18;;;;;;;31.77;13.85;;;;;;;15.55;68.06;101524.38;4941175;29;20059;-80
2022/10/10 02:26:49;;;;;;;24.73;13.90;;;;;;;15.73;68.40;101556.16;4940504;29;20038;-76
2022/10/10 02:29:20;;;;;;;44.78;14.90;;;;;;;15.71;68.25;101551.88;4932452;29;20039;-77
2022/10/10 02:32:03;;;;;;;90.75;17.65;;;;;;;15.73;68.21;101572.44;4940763;29;20025;-75
2022/10/10 02:34:34;;;;;;;18.85;13.55;;;;;;;15.66;68.36;101562.25;4950306;29;20491;-78
2022/10/10 02:37:05;;;;;;;24.10;14.25;;;;;;;15.69;68.24;101564.69;4951610;28;20487;-76
2022/10/10 02:39:35;;;;;;;27.52;13.18;;;;;;;15.72;68.33;101569.84;4951482;28;20117;-77
2022/10/10 02:42:03;;;;;;;25.65;15.00;;;;;;;15.74;68.25;101578.72;4953653;28;20019;-75
2022/10/10 02:44:29;;;;;;;25.65;13.32;;;;;;;15.69;68.09;101589.09;4954841;29;20031;-77
2022/10/10 02:46:55;;;;;;;32.97;13.15;;;;;;;15.56;68.55;101574.91;4955139;28;20045;-76
2022/10/10 02:49:31;;;;;;;26.38;13.85;;;;;;;15.63;68.42;101581.50;4954412;29;20031;-77
2022/10/10 02:51:57;;;;;;;50.83;14.52;;;;;;;15.52;68.58;101581.59;4955642;28;20052;-77
2022/10/10 02:54:23;;;;;;;25.95;13.48;;;;;;;15.37;68.82;101547.66;4955237;28;20106;-78
2022/10/10 02:56:48;;;;;;;21.92;12.68;;;;;;;15.57;68.55;101587.47;4955815;28;20027;-77
2022/10/10 02:59:13;;;;;;;32.60;12.90;;;;;;;15.61;68.55;101599.78;4954956;28;20171;-76
2022/10/10 03:01:39;;;;;;;23.05;13.30;;;;;;;15.56;68.80;101610.16;4954899;28;20027;-77
2022/10/10 03:04:05;;;;;;;24.30;13.25;;;;;;;15.64;68.82;101602.22;4955033;28;20038;-77
2022/10/10 03:06:30;;;;;;;17.52;13.40;;;;;;;15.74;68.20;101603.13;4936553;29;20043;-76
2022/10/10 03:08:55;;;;;;;20.90;13.50;;;;;;;15.73;68.10;101598.69;4955045;29;20027;-75
2022/10/10 03:11:21;;;;;;;192.73;22.23;;;;;;;15.74;67.97;101614.00;4954733;28;20505;-77
2022/10/10 03:13:46;;;;;;;29.98;14.02;;;;;;;15.56;68.37;101599.31;4954589;28;20031;-76
2022/10/10 03:16:12;;;;;;;21.17;14.02;;;;;;;15.78;68.21;101628.97;4954849;28;20027;-77
2022/10/10 03:18:37;;;;;;;29.30;13.80;;;;;;;15.54;68.14;101594.03;4954778;28;20058;-76
2022/10/10 03:21:03;;;;;;;29.05;13.35;;;;;;;15.67;68.81;101627.22;4954491;28;20066;-77
2022/10/10 03:23:29;;;;;;;70.85;15.02;;;;;;;15.74;68.34;101635.69;4953635;28;20058;-78
2022/10/10 03:25:54;;;;;;;21.00;13.93;;;;;;;15.69;68.71;101637.94;4954686;28;20110;-76
2022/10/10 03:28:20;;;;;;;25.70;14.27;;;;;;;15.76;68.19;101636.41;4954426;28;20035;-77
2022/10/10 03:30:46;;;;;;;19.95;12.43;;;;;;;15.83;67.85;101648.44;4954956;28;20034;-77
2022/10/10 03:33:12;;;;;;;30.08;14.40;;;;;;;15.88;67.54;101637.19;4954283;28;20031;-77
2022/10/10 03:35:37;;;;;;;24.15;13.98;;;;;;;15.55;67.62;101584.91;4954648;28;20020;-77
2022/10/10 03:38:04;;;;;;;26.00;13.77;;;;;;;15.88;67.58;101637.19;4956706;28;20047;-78
2022/10/10 03:40:30;;;;;;;30.98;13.15;;;;;;;15.94;67.29;101644.78;4963060;28;20051;-76
2022/10/10 03:42:55;;;;;;;37.15;14.40;;;;;;;15.93;67.10;101643.09;4961315;28;20038;-76
2022/10/10 03:45:20;;;;;;;77.22;17.60;;;;;;;15.92;67.17;101642.22;4957133;28;20039;-78
2022/10/10 03:47:46;;;;;;;32.75;13.82;;;;;;;16.03;66.81;101650.28;4954518;28;20118;-77
2022/10/10 03:50:11;;;;;;;34.03;14.52;;;;;;;16.00;66.86;101653.25;4953802;28;20703;-77
2022/10/10 03:52:37;;;;;;;23.42;13.48;;;;;;;15.79;66.79;101609.88;4954016;28;20039;-77
2022/10/10 03:55:03;;;;;;;27.27;11.90;;;;;;;16.08;66.50;101653.47;4954040;28;20035;-77
2022/10/10 03:57:28;;;;;;;23.95;13.93;;;;;;;15.92;66.48;101647.66;4954079;28;21170;-76
2022/10/10 03:59:54;;;;;;;51.22;14.13;;;;;;;15.94;66.74;101652.94;4954512;28;20032;-77
2022/10/10 04:02:19;;;;;;;34.95;13.57;;;;;;;15.90;66.93;101657.75;4955660;28;20085;-77
2022/10/10 04:04:45;;;;;;;25.00;13.80;;;;;;;15.94;66.95;101664.66;4953902;28;20158;-74
2022/10/10 04:07:10;;;;;;;42.63;13.95;;;;;;;15.88;67.06;101662.47;4953637;28;20110;-76
2022/10/10 04:09:36;;;;;;;40.17;14.35;;;;;;;15.75;66.70;101631.97;4953651;28;20066;-74
2022/10/10 04:12:01;;;;;;;68.15;15.65;;;;;;;15.86;66.68;101659.03;4953515;28;20031;-76
2022/10/10 04:14:27;;;;;;;34.63;13.45;;;;;;;15.65;67.04;101637.34;4953493;28;20059;-74
2022/10/10 04:16:52;;;;;;;31.25;12.80;;;;;;;15.72;66.70;101635.81;4953273;28;20027;-74
2022/10/10 04:19:17;;;;;;;45.08;14.15;;;;;;;15.91;66.28;101673.06;4953354;28;20799;-75
2022/10/10 04:21:43;;;;;;;30.80;12.15;;;;;;;15.84;66.35;101660.16;4952311;29;20103;-75
2022/10/10 04:24:09;;;;;;;192.23;22.23;;;;;;;15.94;65.68;101672.78;4953295;28;20052;-75
2022/10/10 04:26:34;;;;;;;28.23;12.57;;;;;;;15.89;65.98;101671.47;4953031;28;20042;-75
2022/10/10 04:29:00;;;;;;;52.55;13.77;;;;;;;15.82;65.79;101663.00;4953131;28;20038;-77
2022/10/10 04:31:25;;;;;;;29.60;12.88;;;;;;;15.70;65.44;101648.66;4953646;28;20046;-77
2022/10/10 04:33:51;;;;;;;41.30;12.57;;;;;;;15.77;65.76;101671.56;4951919;29;20031;-76
2022/10/10 04:36:17;;;;;;;69.40;16.65;;;;;;;15.64;66.45;101676.31;4953069;28;20036;-76
2022/10/10 04:38:42;;;;;;;25.02;11.73;;;;;;;15.59;66.27;101673.13;4953238;29;20491;-76
2022/10/10 04:41:08;;;;;;;89.28;14.05;;;;;;;15.63;66.23;101666.44;4952912;28;20443;-75
2022/10/10 04:43:34;;;;;;;63.42;12.85;;;;;;;15.70;65.83;101670.34;4953404;28;20043;-78
2022/10/10 04:45:59;;;;;;;145.40;16.55;;;;;;;15.75;65.26;101667.22;4953165;28;20039;-78
2022/10/10 04:48:25;;;;;;;44.47;11.07;;;;;;;15.87;64.70;101677.00;4952918;29;20037;-79
2022/10/10 04:50:56;;;;;;;28.10;9.88;;;;;;;16.06;64.48;101688.00;4953538;28;20035;-78
2022/10/10 04:53:22;;;;;;;38.10;10.98;;;;;;;15.97;63.79;101671.66;4953360;28;20110;-79
2022/10/10 04:55:48;;;;;;;120.65;16.63;;;;;;;16.03;63.80;101693.69;4959006;28;20403;-79
2022/10/10 04:58:14;;;;;;;49.95;23.02;;;;;;;16.05;63.68;101705.28;4970904;28;20046;-80
2022/10/10 05:00:39;;;;;;;55.67;11.82;;;;;;;16.00;63.41;101677.66;4971688;28;20031;-78
2022/10/10 05:03:05;;;;;;;57.92;11.57;;;;;;;16.18;63.01;101710.47;4963056;28;20031;-77
2022/10/10 05:05:31;;;;;;;35.35;11.38;;;;;;;16.08;62.64;101675.16;4952111;28;20038;-79
2022/10/10 05:07:57;;;;;;;26.15;10.27;;;;;;;16.17;62.44;101700.63;4952900;28;20028;-78
2022/10/10 05:10:23;;;;;;;21.20;8.88;;;;;;;16.13;62.20;101686.47;4952528;28;20106;-76
2022/10/10 05:12:49;;;;;;;28.02;9.05;;;;;;;16.34;62.15;101703.56;4956797;28;20035;-79
2022/10/10 05:15:15;;;;;;;33.70;9.45;;;;;;;16.31;61.60;101703.84;4952990;28;20106;-80
2022/10/10 05:17:40;;;;;;;45.00;10.48;;;;;;;16.12;61.92;101681.16;4951409;28;20139;-78
2022/10/10 05:20:06;;;;;;;44.35;10.45;;;;;;;15.99;62.42;101696.81;4951735;28;20027;-76
2022/10/10 05:22:31;;;;;;;39.10;10.23;;;;;;;16.28;61.99;101703.25;4951259;29;20114;-77
2022/10/10 05:24:58;;;;;;;30.33;9.13;;;;;;;16.11;61.81;101696.63;4950441;28;20054;-77
2022/10/10 05:27:25;;;;;;;57.63;12.35;;;;;;;16.18;61.46;101695.06;4950972;29;20038;-79
2022/10/10 05:29:50;;;;;;;58.60;10.35;;;;;;;16.30;60.95;101693.09;4950365;29;20086;-76
2022/10/10 05:32:16;;;;;;;16.58;7.93;;;;;;;16.52;60.52;101717.38;4951360;28;20059;-76
2022/10/10 05:34:41;;;;;;;42.85;14.63;;;;;;;16.48;60.26;101737.63;4950711;28;20074;-78
2022/10/10 05:37:06;;;;;;;70.68;13.05;;;;;;;16.47;60.75;101743.22;4950088;29;20027;-75
2022/10/10 05:39:32;;;;;;;23.77;9.00;;;;;;;16.44;60.49;101733.50;4950718;28;20027;-77
2022/10/10 05:41:57;;;;;;;35.97;8.27;;;;;;;16.45;60.05;101747.94;4951343;28;20031;-79
2022/10/10 05:44:23;;;;;;;16.90;6.97;;;;;;;16.41;60.13;101735.63;4951332;28;20074;-79
2022/10/10 05:46:48;;;;;;;40.13;7.38;;;;;;;16.49;60.07;101738.50;4951683;28;20050;-77
2022/10/10 05:49:14;;;;;;;39.72;8.68;;;;;;;16.60;59.69;101746.63;4951009;28;20031;-76
2022/10/10 05:51:39;;;;;;;22.35;8.38;;;;;;;16.59;59.94;101751.19;4951276;28;20047;-77
2022/10/10 05:54:05;;;;;;;54.72;8.30;;;;;;;16.69;59.32;101762.09;4950449;28;20588;-78
2022/10/10 05:56:30;;;;;;;40.28;10.70;;;;;;;16.77;59.40;101770.41;4950709;28;20034;-76
2022/10/10 05:58:56;;;;;;;25.15;7.25;;;;;;;16.80;59.36;101761.97;4951169;28;20114;-76
2022/10/10 06:01:21;;;;;;;29.98;8.10;;;;;;;16.75;58.71;101728.94;4932467;29;20039;-78
2022/10/10 06:03:51;;;;;;;22.27;9.40;;;;;;;17.12;58.65;101770.84;4951474;28;20037;-75
2022/10/10 06:06:18;;;;;;;46.78;9.23;;;;;;;17.16;57.50;101777.69;4951847;28;20031;-74
2022/10/10 06:08:43;;;;;;;76.85;10.20;;;;;;;17.09;57.24;101778.41;4951560;28;20027;-79
2022/10/10 06:11:10;;;;;;;66.97;10.68;;;;;;;17.21;57.46;101780.88;4952070;28;20038;-77
2022/10/10 06:13:36;;;;;;;51.78;11.35;;;;;;;17.33;57.02;101773.44;4944123;29;20039;-76
2022/10/10 06:16:02;;;;;;;42.25;9.15;;;;;;;17.45;56.96;101779.63;4970819;28;20035;-77
2022/10/10 06:18:27;;;;;;;22.15;8.73;;;;;;;17.48;56.99;101784.78;4974046;29;20031;-84
2022/10/10 06:20:53;;;;;;;29.15;7.53;;;;;;;17.55;56.15;101775.09;4952550;29;20062;-78
2022/10/10 06:23:19;;;;;;;13.30;5.47;;;;;;;17.47;55.23;101761.28;4951848;29;20097;-79
2022/10/10 06:25:45;;;;;;;11.73;6.50;;;;;;;17.56;55.14;101783.09;4950154;29;20039;-78
2022/10/10 06:28:10;;;;;;;33.65;8.52;;;;;;;17.61;55.29;101779.97;4950277;29;20032;-77
2022/10/10 06:30:43;;;;;;;21.50;5.68;;;;;;;17.70;54.87;101785.41;4950659;29;20487;-77
2022/10/10 06:33:10;;;;;;;22.92;6.25;;;;;;;17.71;54.43;101784.38;4950517;29;20024;-77
2022/10/10 06:35:40;;;;;;;16.17;6.78;;;;;;;17.78;54.30;101790.13;4949911;29;20114;-77
2022/10/10 06:38:06;;;;;;;15.27;5.72;;;;;;;17.65;54.08;101775.94;4952533;29;20058;-79
2022/10/10 06:40:32;;;;;;;13.50;4.82;;;;;;;17.82;53.64;101786.13;4952112;29;20462;-77
2022/10/10 06:42:58;;;;;;;22.75;5.25;;;;;;;17.81;53.25;101800.72;4950797;28;20070;-77
2022/10/10 06:45:24;;;;;;;10.00;4.72;;;;;;;17.86;52.94;101798.41;4950296;28;20078;-78
2022/10/10 06:47:50;;;;;;;17.05;5.28;;;;;;;17.87;53.18;101797.44;4950177;29;20094;-78
2022/10/10 06:50:15;;;;;;;14.82;4.90;;;;;;;17.92;52.87;101792.41;4949759;28;20086;-78
2022/10/10 06:52:41;;;;;;;35.20;5.85;;;;;;;18.05;52.18;101795.69;4950719;29;20115;-77
2022/10/10 06:55:07;;;;;;;15.57;4.28;;;;;;;18.06;52.36;101799.28;4950321;28;20035;-77
2022/10/10 06:57:32;;;;;;;8.05;4.78;;;;;;;17.94;51.83;101761.34;4947752;29;20466;-76
2022/10/10 06:59:58;;;;;;;9.57;4.65;;;;;;;18.13;51.78;101795.84;4950536;29;20023;-84
2022/10/10 07:02:23;;;;;;;29.20;4.75;;;;;;;18.27;50.65;101809.00;4950931;28;20102;-80
2022/10/10 07:04:49;;;;;;;12.85;5.50;;;;;;;18.28;50.90;101799.84;4951081;29;20031;-80
2022/10/10 07:07:15;;;;;;;18.55;5.88;;;;;;;18.19;50.82;101773.47;4950369;29;20039;-80
2022/10/10 07:09:41;;;;;;;92.22;7.90;;;;;;;17.94;50.79;101755.03;4950470;29;20051;-82
2022/10/10 07:12:06;;;;;;;23.42;5.45;;;;;;;18.23;50.58;101791.22;4950795;28;20079;-87
2022/10/10 07:14:32;;;;;;;8.88;5.05;;;;;;;18.31;50.21;101782.34;4952319;29;20039;-88
2022/10/10 07:16:57;;;;;;;24.10;4.93;;;;;;;18.32;49.79;101770.41;4973553;28;20067;-85
2022/10/10 07:19:23;;;;;;;9.25;4.00;;;;;;;18.43;49.37;101798.38;4951048;29;20035;-81
2022/10/10 07:21:49;;;;;;;14.73;4.10;;;;;;;18.59;49.11;101819.56;4952339;29;20506;-82
2022/10/10 07:24:15;;;;;;;17.98;4.55;;;;;;;18.50;49.30;101798.66;4950980;29;20047;-83
2022/10/10 07:26:41;;;;;;;17.15;4.57;;;;;;;18.70;49.12;101807.63;4953353;28;20038;-80
2022/10/10 07:29:07;;;;;;;19.88;7.40;;;;;;;18.56;48.77;101791.78;4962853;28;20031;-82
2022/10/10 07:31:32;;;;;;;16.95;5.45;;;;;;;18.75;48.02;101802.59;4977679;29;20047;-85
2022/10/10 07:33:58;;;;;;;8.40;4.00;;;;;;;18.83;48.52;101808.19;4977901;28;20049;-83
2022/10/10 07:36:23;;;;;;;13.30;4.72;;;;;;;18.84;47.58;101807.16;4967579;29;20411;-79
2022/10/10 07:38:50;;;;;;;171.65;18.10;;;;;;;19.00;47.54;101810.09;4954903;28;20055;-74
2022/10/10 07:41:17;;;;;;;13.15;4.50;;;;;;;19.16;46.17;101806.72;4953121;28;20043;-75
2022/10/10 07:43:42;;;;;;;17.85;4.05;;;;;;;19.17;46.50;101798.41;4953242;28;20035;-76
2022/10/10 07:46:18;;;;;;;8.15;3.53;;;;;;;19.32;46.32;101813.25;4953116;29;20130;-75
2022/10/10 07:48:44;;;;;;;12.77;5.10;;;;;;;19.18;46.58;101772.81;4952628;29;20027;-77
2022/10/10 07:51:10;;;;;;;17.45;4.43;;;;;;;19.44;46.27;101792.09;4953080;29;20033;-78
2022/10/10 07:53:36;;;;;;;12.40;3.72;;;;;;;19.45;46.42;101774.69;4952905;29;20035;-78
2022/10/10 07:56:05;;;;;;;20.98;8.75;;;;;;;19.65;45.29;101798.13;4953109;28;20031;-81
2022/10/10 07:58:35;;;;;;;28.15;5.90;;;;;;;19.72;44.92;101801.09;4952932;28;20452;-78
2022/10/10 08:01:12;;;;;;;42.53;7.45;;;;;;;19.76;45.18;101783.34;4952520;29;20059;-79
2022/10/10 08:03:38;;;;;;;26.35;4.72;;;;;;;19.91;45.04;101799.03;4953902;28;20029;-79
2022/10/10 08:06:06;;;;;;;115.45;9.10;;;;;;;20.01;43.27;101796.22;4957331;28;20031;-79
2022/10/10 08:08:32;;;;;;;17.65;3.63;;;;;;;19.98;43.29;101774.69;4953808;28;20062;-78
2022/10/10 08:10:58;;;;;;;28.05;7.25;;;;;;;20.10;43.66;101796.16;4953693;28;20061;-79
2022/10/10 08:13:25;;;;;;;31.77;8.13;;;;;;;20.15;43.27;101773.78;4953252;28;20035;-76
2022/10/10 08:15:50;;;;;;;20.20;3.53;;;;;;;20.26;42.92;101790.00;4953344;29;20037;-77
2022/10/10 08:18:16;;;;;;;9.05;2.33;;;;;;;20.46;40.67;101787.88;4950404;29;20027;-77
2022/10/10 08:20:42;;;;;;;21.15;3.00;;;;;;;20.52;40.96;101787.25;4956878;28;20034;-76
2022/10/10 08:23:07;;;;;;;8.68;2.88;;;;;;;20.60;39.82;101777.25;4951662;29;20067;-78
2022/10/10 08:25:33;;;;;;;16.63;5.70;;;;;;;20.79;40.10;101788.97;4953129;28;20921;-79
2022/10/10 08:27:59;;;;;;;7.53;3.10;;;;;;;20.87;40.18;101786.25;4952672;28;20464;-77
2022/10/10 08:30:24;;;;;;;4.97;2.25;;;;;;;21.00;38.14;101792.16;4952347;28;20038;-78
2022/10/10 08:32:50;;;;;;;10.77;4.10;;;;;;;21.03;38.40;101791.81;4951307;29;20027;-79
2022/10/10 08:35:15;;;;;;;11.30;3.00;;;;;;;21.13;36.84;101781.59;4952424;29;20046;-77
2022/10/10 08:37:41;;;;;;;6.57;1.90;;;;;;;21.11;36.34;101778.19;4952218;28;20023;-77
2022/10/10 08:40:07;;;;;;;32.72;4.35;;;;;;;21.11;38.05;101780.94;4952760;29;20121;-78
2022/10/10 08:42:38;;;;;;;21.20;3.38;;;;;;;21.06;37.74;101775.06;4951206;29;20042;-79
2022/10/10 08:45:14;;;;;;;16.15;5.07;;;;;;;21.07;38.92;101779.50;4952260;28;20062;-79
2022/10/10 08:47:57;;;;;;;9.57;3.95;;;;;;;21.12;37.56;101764.38;4964738;29;20051;-77
2022/10/10 08:50:46;;;;;;;16.33;4.97;;;;;;;21.35;36.90;101774.66;4968127;28;20058;-79
2022/10/10 08:53:21;;;;;;;21.00;4.20;;;;;;;21.42;36.44;101771.13;4964656;28;20117;-79
2022/10/10 08:55:47;;;;;;;454.08;44.47;;;;;;;21.54;36.60;101775.25;4952146;28;20039;-78
2022/10/10 08:58:35;;;;;;;60.10;7.20;;;;;;;21.79;35.70;101788.97;4951838;28;20027;-78
2022/10/10 09:01:10;;;;;;;10.77;2.97;;;;;;;21.59;35.42;101752.81;4951861;29;20060;-77
2022/10/10 09:03:44;;;;;;;51.97;3.88;;;;;;;21.73;34.76;101752.16;4951730;28;20074;-79
2022/10/10 09:06:21;;;;;;;20.33;3.40;;;;;;;22.02;33.40;101795.53;4951667;28;20117;-80
2022/10/10 09:09:00;;;;;;;80.50;11.38;;;;;;;22.10;33.38;101782.69;4951815;28;20399;-80
2022/10/10 09:12:13;;;;;;;20.35;2.90;;;;;;;22.22;32.70;101781.31;4951334;28;20101;-79
2022/10/10 09:14:57;;;;;;;8.80;3.00;;;;;;;22.26;32.37;101789.19;4910674;29;20048;-78
2022/10/10 09:17:28;;;;;;;4.70;2.00;;;;;;;22.31;31.94;101784.91;4910761;29;20036;-76
2022/10/10 09:20:55;;;;;;;6.80;2.65;;;;;;;22.37;31.69;101784.22;4891509;29;20523;-77
2022/10/10 09:23:44;;;;;;;172.38;12.90;;;;;;;22.16;32.26;101759.22;4799455;29;20509;-77
2022/10/10 09:26:16;;;;;;;31.17;4.13;;;;;;;22.25;31.86;101766.41;4746145;30;20129;-78
2022/10/10 09:29:03;;;;;;;24.70;2.90;;;;;;;22.17;32.40;101753.56;4745974;30;20048;-79
2022/10/10 09:31:40;;;;;;;71.07;4.43;;;;;;;22.28;32.04;101784.38;4747610;30;20144;-80
2022/10/10 09:34:08;;;;;;;6.28;2.25;;;;;;;22.11;31.45;101736.94;4747961;30;20079;-77
2022/10/10 09:36:35;;;;;;;26.52;3.13;;;;;;;22.55;31.36;101786.75;4746195;30;20047;-77
2022/10/10 09:39:23;;;;;;;11.43;3.35;;;;;;;22.51;32.31;101778.00;4745469;30;20493;-77
2022/10/10 09:41:59;;;;;;;7.25;3.10;;;;;;;22.69;32.18;101784.16;4745791;30;20075;-77
2022/10/10 09:44:25;;;;;;;78.95;7.15;;;;;;;22.76;33.28;101773.34;4745849;30;20087;-76
2022/10/10 09:46:51;;;;;;;12.38;3.65;;;;;;;22.63;33.77;101754.66;4745856;30;20110;-77
2022/10/10 09:49:18;;;;;;;35.33;3.53;;;;;;;22.89;32.66;101764.56;4760731;30;20079;-77
2022/10/10 09:51:45;;;;;;;4.43;2.38;;;;;;;22.98;32.68;101774.47;4745710;30;20043;-77
2022/10/10 09:54:14;;;;;;;25.80;3.45;;;;;;;23.05;33.14;101762.63;4770404;30;20108;-79
2022/10/10 09:56:52;;;;;;;12.38;2.72;;;;;;;22.95;35.09;101752.88;4782115;30;20043;-76
2022/10/10 09:59:36;;;;;;;15.13;2.28;;;;;;;23.11;35.39;101766.53;4785124;29;20047;-76
2022/10/10 10:02:11;;;;;;;37.95;4.25;;;;;;;23.07;36.65;101760.56;4854058;29;20040;-76
2022/10/10 10:04:37;;;;;;;61.17;4.60;;;;;;;23.00;36.47;101759.53;4945059;29;20063;-76
2022/10/10 10:07:18;;;;;;;17.75;2.97;;;;;;;22.93;36.29;101757.69;4942562;29;20040;-77
2022/10/10 10:09:49;;;;;;;100.57;8.30;;;;;;;22.89;36.41;101756.34;4939531;29;20024;-76
2022/10/10 10:12:19;;;;;;;73.07;5.28;;;;;;;22.70;37.02;101742.00;4931229;29;20074;-76
2022/10/10 10:14:45;;;;;;;17.63;2.78;;;;;;;22.68;37.46;101748.72;4931513;29;20467;-77
2022/10/10 10:17:15;;;;;;;48.47;3.75;;;;;;;22.41;38.14;101708.81;4931515;29;20039;-77
2022/10/10 10:19:42;;;;;;;33.08;4.70;;;;;;;22.62;38.42;101743.91;4948471;29;20019;-76
2022/10/10 10:22:45;;;;;;;69.35;7.07;;;;;;;22.59;38.73;101745.09;4950481;29;20031;-78
2022/10/10 10:25:25;;;;;;;;;;;;;;;22.65;38.86;101755.41;4910489;29;20163;-78
2022/10/10 10:27:51;;;;;;;60.33;7.38;;;;;;;22.63;39.90;101738.22;4909699;29;20375;-78
2022/10/10 10:30:24;;;;;;;34.30;3.70;;;;;;;22.80;38.80;101725.34;4909462;29;20029;-76
2022/10/10 10:33:13;;;;;;;154.18;13.68;;;;;;;22.77;39.55;101732.03;4909835;29;20048;-77
2022/10/10 10:36:17;;;;;;;85.38;8.90;;;;;;;22.90;39.22;101733.38;4909628;29;20994;-77
2022/10/10 10:38:56;;;;;;;40.13;6.22;;;;;;;22.90;37.83;101733.38;4835491;29;20092;-80
2022/10/10 10:41:29;;;;;;;42.38;5.22;;;;;;;22.65;39.11;101729.84;4821295;29;20042;-79
2022/10/10 10:44:03;;;;;;;32.33;4.90;;;;;;;22.71;39.57;101730.00;4834940;29;20049;-78
2022/10/10 10:46:44;;;;;;;35.55;4.30;;;;;;;22.91;40.40;101732.31;4833844;29;20630;-78
2022/10/10 10:49:15;;;;;;;155.48;9.95;;;;;;;22.40;40.70;101671.47;4835169;29;20123;-79
2022/10/10 10:52:05;;;;;;;39.22;5.38;;;;;;;22.77;41.08;101736.66;4835132;29;20097;-80
2022/10/10 10:54:58;;;;;;;32.03;4.38;;;;;;;22.93;40.52;101742.09;4835381;29;20052;-79
2022/10/10 10:57:35;;;;;;;;;;;;;;;22.68;41.26;101733.09;4835766;29;20105;-77
2022/10/10 11:00:13;;;;;;;91.75;5.25;;;;;;;22.46;41.62;101728.34;4872217;29;20427;-78
2022/10/10 11:02:56;;;;;;;33.50;5.00;;;;;;;22.48;42.02;101731.75;4873448;29;20083;-78
2022/10/10 11:05:42;;;;;;;97.30;10.95;;;;;;;22.55;42.25;101727.28;4875595;29;20072;-77
2022/10/10 11:08:41;;;;;;;11.52;2.70;;;;;;;22.64;42.29;101728.97;4875539;29;20033;-79
2022/10/10 11:11:25;;;;;;;151.40;8.10;;;;;;;22.57;42.80;101732.56;4875540;29;20133;-76
2022/10/10 11:14:14;;;;;;;27.02;3.72;;;;;;;22.35;42.41;101719.63;4876628;29;20424;-78
2022/10/10 11:16:52;;;;;;;47.13;3.97;;;;;;;22.24;42.21;101705.25;4951974;29;20046;-82
2022/10/10 11:19:38;;;;;;;25.70;3.67;;;;;;;22.39;42.92;101710.88;4955502;29;20035;-80
2022/10/10 11:22:16;;;;;;;16.30;2.90;;;;;;;22.30;40.64;101706.44;4963940;29;20027;-78
2022/10/10 11:24:50;;;;;;;8.88;3.35;;;;;;;22.39;40.24;101712.75;4969180;29;20185;-79
2022/10/10 11:27:25;;;;;;;5.15;3.17;;;;;;;22.40;39.23;101696.13;4960270;29;20081;-82
2022/10/10 11:30:06;;;;;;;19.45;3.28;;;;;;;22.69;40.95;101707.38;4953572;29;20035;-77